Time;durP1;ratioP1;P1;durP2;ratioP2;P2;SDS_P1;SDS_P2;PMS_P1;PMS_P2;Temp;Humidity;BMP_temperature;BMP_pressure;BME280_temperature;BME280_humidity;BME280_pressure;Samples;Min_cycle;Max_cycle;Signal;HPM_P1;HPM_P2
2022/01/31 00:00:25;;;;;;;22.48;9.00;;;;;;;;;;5097322;28;20023;-78
2022/01/31 00:02:51;;;;;;;22.50;8.93;;;;;;;;;;5102919;28;20032;-80
2022/01/31 00:05:20;;;;;;;24.63;9.43;;;;;;;;;;5100246;28;20030;-78
2022/01/31 00:07:46;;;;;;;22.42;8.52;;;;;;;;;;5097541;28;20024;-81
2022/01/31 00:10:14;;;;;;;19.40;8.90;;;;;;;;;;5095242;28;20028;-83
2022/01/31 00:12:55;;;;;;;23.17;8.73;;;;;;;;;;5099973;28;21068;-82
2022/01/31 00:15:21;;;;;;;21.70;9.68;;;;;;;;;;5099153;28;20024;-81
2022/01/31 00:17:47;;;;;;;17.10;7.72;;;;;;;;;;5094056;28;20049;-80
2022/01/31 00:20:13;;;;;;;22.50;7.78;;;;;;;;;;5095214;28;20486;-80
2022/01/31 00:22:39;;;;;;;17.58;8.50;;;;;;;;;;5094497;28;20091;-79
2022/01/31 00:25:06;;;;;;;19.70;8.73;;;;;;;;;;5111700;28;20462;-82
2022/01/31 00:27:32;;;;;;;20.67;8.00;;;;;;;;;;5111762;28;20027;-79
2022/01/31 00:29:58;;;;;;;22.15;9.20;;;;;;;;;;5113825;28;20124;-84
2022/01/31 00:32:25;;;;;;;27.42;8.27;;;;;;;;;;5097704;28;20042;-82
2022/01/31 00:34:54;;;;;;;19.08;6.68;;;;;;;;;;5093924;28;20055;-79
2022/01/31 00:37:20;;;;;;;15.90;7.40;;;;;;;;;;5111389;28;20027;-80
2022/01/31 00:39:46;;;;;;;18.00;8.15;;;;;;;;;;5092696;28;20027;-83
2022/01/31 00:42:12;;;;;;;21.67;7.57;;;;;;;;;;5099769;28;20031;-81
2022/01/31 00:44:41;;;;;;;19.38;7.78;;;;;;;;;;5095046;28;20111;-79
2022/01/31 00:47:21;;;;;;;21.05;8.52;;;;;;;;;;5093106;28;20039;-82
2022/01/31 00:49:53;;;;;;;22.35;7.65;;;;;;;;;;5097075;28;20050;-82
2022/01/31 00:52:19;;;;;;;27.70;8.55;;;;;;;;;;5121318;28;20023;-81
2022/01/31 00:54:45;;;;;;;17.17;7.82;;;;;;;;;;5097358;28;20049;-80
2022/01/31 00:57:11;;;;;;;19.17;8.23;;;;;;;;;;5112692;28;20035;-81
2022/01/31 00:59:38;;;;;;;17.60;7.80;;;;;;;;;;5111741;28;20087;-81
2022/01/31 01:02:04;;;;;;;22.63;8.88;;;;;;;;;;5112539;27;20035;-84
2022/01/31 01:04:30;;;;;;;20.50;8.48;;;;;;;;;;5094922;28;20027;-79
2022/01/31 01:06:56;;;;;;;23.65;8.52;;;;;;;;;;5103731;28;20061;-82
2022/01/31 01:09:23;;;;;;;21.95;7.80;;;;;;;;;;5114842;28;20032;-83
2022/01/31 01:11:49;;;;;;;22.98;8.82;;;;;;;;;;5096231;28;20023;-83
2022/01/31 01:14:15;;;;;;;25.75;8.65;;;;;;;;;;5121589;28;20079;-79
2022/01/31 01:16:41;;;;;;;17.17;6.03;;;;;;;;;;5115215;28;20027;-87
2022/01/31 01:19:12;;;;;;;20.27;6.40;;;;;;;;;;5100403;28;20032;-86
2022/01/31 01:21:38;;;;;;;15.70;4.07;;;;;;;;;;5104778;28;20100;-82
2022/01/31 01:24:04;;;;;;;15.73;4.30;;;;;;;;;;5098541;28;20032;-81
2022/01/31 01:26:32;;;;;;;14.27;3.50;;;;;;;;;;5095871;28;20119;-79
2022/01/31 01:28:58;;;;;;;14.45;4.30;;;;;;;;;;5113240;28;20024;-80
2022/01/31 01:31:24;;;;;;;13.63;4.60;;;;;;;;;;5097647;28;20031;-81
2022/01/31 01:33:52;;;;;;;9.93;3.42;;;;;;;;;;5117046;28;20052;-81
2022/01/31 01:36:20;;;;;;;7.88;3.10;;;;;;;;;;5116079;28;20100;-82
2022/01/31 01:38:46;;;;;;;12.07;3.28;;;;;;;;;;5098204;28;20031;-80
2022/01/31 01:41:12;;;;;;;10.60;2.95;;;;;;;;;;5092932;28;20066;-85
2022/01/31 01:43:38;;;;;;;12.05;3.42;;;;;;;;;;5098152;28;20048;-80
2022/01/31 01:46:05;;;;;;;11.70;3.95;;;4.60;99.90;;;;;;5113931;28;20051;-79
2022/01/31 01:48:31;;;;;;;11.07;2.92;;;;;;;;;;5114041;28;20027;-83
2022/01/31 01:50:58;;;;;;;9.95;3.00;;;4.70;99.90;;;;;;5097497;28;20039;-81
2022/01/31 01:53:25;;;;;;;14.07;3.67;;;;;;;;;;5116598;28;20025;-80
2022/01/31 01:55:52;;;;;;;15.45;3.80;;;;;;;;;;5106409;28;20048;-81
2022/01/31 01:58:19;;;;;;;14.77;4.30;;;;;;;;;;5094670;28;20031;-81
2022/01/31 02:01:04;;;;;;;15.00;4.70;;;;;;;;;;5115098;28;20024;-84
2022/01/31 02:03:31;;;;;;;12.68;3.78;;;;;;;;;;5098333;28;20023;-83
2022/01/31 02:05:58;;;;;;;10.45;3.83;;;;;;;;;;5119941;28;20475;-83
2022/01/31 02:08:25;;;;;;;13.38;4.22;;;;;;;;;;5115384;28;20024;-79
2022/01/31 02:10:51;;;;;;;15.68;4.70;;;;;;;;;;5099999;28;20036;-82
2022/01/31 02:13:18;;;;;;;13.40;4.45;;;;;;;;;;5118255;28;20028;-78
2022/01/31 02:15:46;;;;;;;13.95;3.90;;;4.80;99.90;;;;;;5110784;28;20031;-82
2022/01/31 02:18:12;;;;;;;12.77;3.80;;;;;;;;;;5094279;28;20052;-82
2022/01/31 02:20:39;;;;;;;13.85;4.00;;;;;;;;;;5099047;28;20130;-81
2022/01/31 02:23:13;;;;;;;13.68;4.63;;;;;;;;;;5120736;28;20039;-81
2022/01/31 02:25:51;;;;;;;10.63;3.83;;;;;;;;;;5093724;28;20034;-82
2022/01/31 02:28:18;;;;;;;11.13;4.10;;;;;;;;;;5092118;28;20095;-82
2022/01/31 02:30:44;;;;;;;13.90;3.88;;;;;;;;;;5095172;28;20024;-78
2022/01/31 02:33:10;;;;;;;16.77;4.20;;;;;;;;;;5096897;28;20035;-82
2022/01/31 02:35:36;;;;;;;12.93;3.78;;;;;;;;;;5099134;28;20035;-81
2022/01/31 02:38:02;;;;;;;16.40;4.70;;;;;;;;;;5115197;28;20020;-81
2022/01/31 02:40:29;;;;;;;12.45;4.13;;;;;;;;;;5101543;28;20028;-81
2022/01/31 02:42:55;;;;;;;7.50;3.15;;;;;;;;;;5115961;28;20479;-80
2022/01/31 02:45:21;;;;;;;14.65;3.65;;;;;;;;;;5098251;28;20032;-82
2022/01/31 02:47:53;;;;;;;15.60;5.13;;;;;;;;;;5092414;28;20398;-81
2022/01/31 02:50:20;;;;;;;15.43;3.90;;;;;;;;;;5090981;28;20038;-81
2022/01/31 02:52:49;;;;;;;11.55;4.13;;;;;;;;;;5095934;28;20023;-81
2022/01/31 02:55:15;;;;;;;11.40;3.33;;;;;;;;;;5097131;28;20028;-80
2022/01/31 02:57:42;;;;;;;20.70;4.22;;;;;;;;;;5112266;28;20031;-81
2022/01/31 03:00:09;;;;;;;12.15;3.75;;;5.00;99.90;;;;;;5096923;28;20042;-81
2022/01/31 03:02:35;;;;;;;14.57;3.78;;;;;;;;;;5106121;28;20070;-81
2022/01/31 03:05:01;;;;;;;15.35;3.70;;;;;;;;;;5099531;28;20103;-81
2022/01/31 03:07:27;;;;;;;13.90;3.45;;;;;;;;;;5099265;28;20038;-81
2022/01/31 03:09:53;;;;;;;13.40;4.10;;;;;;;;;;5097830;28;20035;-80
2022/01/31 03:12:19;;;;;;;12.82;3.47;;;;;;;;;;5103701;28;20043;-81
2022/01/31 03:14:45;;;;;;;17.38;3.72;;;;;;;;;;5102935;28;20379;-79
2022/01/31 03:17:12;;;;;;;15.30;3.60;;;;;;;;;;5101927;28;20032;-82
2022/01/31 03:19:40;;;;;;;15.63;3.63;;;;;;;;;;5100645;28;20054;-81
2022/01/31 03:22:06;;;;;;;11.45;3.47;;;;;;;;;;5098162;28;20035;-79
2022/01/31 03:24:33;;;;;;;18.00;4.25;;;;;;;;;;5094916;28;20024;-80
2022/01/31 03:26:59;;;;;;;12.30;3.42;;;;;;;;;;5114273;28;20027;-83
2022/01/31 03:29:25;;;;;;;11.38;3.35;;;;;;;;;;5115302;27;20043;-83
2022/01/31 03:31:51;;;;;;;15.63;3.10;;;;;;;;;;5115169;27;20038;-80
2022/01/31 03:34:18;;;;;;;17.83;3.40;;;;;;;;;;5113552;27;20468;-80
2022/01/31 03:36:44;;;;;;;12.20;3.17;;;;;;;;;;5098572;28;20019;-81
2022/01/31 03:39:10;;;;;;;9.57;4.10;;;;;;;;;;5112302;28;20043;-81
2022/01/31 03:41:36;;;;;;;14.55;5.13;;;;;;;;;;5100402;28;20042;-79
2022/01/31 03:44:02;;;;;;;15.27;4.55;;;;;;;;;;5111269;27;20027;-79
2022/01/31 03:46:30;;;;;;;14.57;4.20;;;;;;;;;;5113953;28;20115;-79
2022/01/31 03:48:56;;;;;;;13.38;3.58;;;;;;;;;;5094345;27;20483;-81
2022/01/31 03:51:22;;;;;;;10.65;2.95;;;;;;;;;;5101852;28;20046;-79
2022/01/31 03:53:48;;;;;;;13.63;3.28;;;;;;;;;;5098476;28;20032;-80
2022/01/31 03:56:14;;;;;;;16.75;3.63;;;;;;;;;;5095950;27;20024;-83
2022/01/31 03:58:40;;;;;;;8.50;3.15;;;;;;;;;;5099420;28;20554;-79
2022/01/31 04:01:07;;;;;;;10.68;3.30;;;;;;;;;;5099341;28;20036;-82
2022/01/31 04:03:34;;;;;;;12.68;2.97;;;;;;;;;;5112410;28;20093;-83
2022/01/31 04:06:00;;;;;;;12.35;3.28;;;;;;;;;;5105771;28;20028;-82
2022/01/31 04:08:26;;;;;;;10.05;3.08;;;;;;;;;;5098327;28;20034;-77
2022/01/31 04:10:52;;;;;;;13.07;3.30;;;;;;;;;;5114767;27;21206;-85
2022/01/31 04:13:18;;;;;;;9.07;2.88;;;;;;;;;;5113404;27;20099;-85
2022/01/31 04:15:45;;;;;;;12.50;3.20;;;;;;;;;;5098806;28;20032;-81
2022/01/31 04:18:11;;;;;;;15.57;3.33;;;;;;;;;;5112189;28;20110;-80
2022/01/31 04:20:38;;;;;;;9.85;3.50;;;;;;;;;;5097196;28;20111;-82
2022/01/31 04:23:16;;;;;;;15.10;3.92;;;;;;;;;;5097599;27;20040;-80
2022/01/31 04:28:19;;;;;;;8.60;3.15;;;;;;;;;;5113368;28;20031;-84
2022/01/31 04:30:53;;;;;;;13.38;3.35;;;;;;;;;;5119257;27;20115;-83
2022/01/31 04:33:19;;;;;;;13.80;3.08;;;;;;;;;;5100522;28;20038;-84
2022/01/31 04:35:45;;;;;;;13.43;3.83;;;;;;;;;;5098181;28;20035;-80
2022/01/31 04:38:11;;;;;;;12.07;2.92;;;;;;;;;;5113960;28;20066;-82
2022/01/31 04:40:37;;;;;;;15.80;3.17;;;;;;;;;;5102244;28;20054;-81
2022/01/31 04:43:03;;;;;;;12.35;2.70;;;;;;;;;;5114142;28;20028;-80
2022/01/31 04:45:30;;;;;;;10.80;2.97;;;;;;;;;;5102415;27;20051;-87
2022/01/31 04:47:56;;;;;;;19.77;2.95;;;;;;;;;;5115990;27;20028;-82
2022/01/31 04:50:22;;;;;;;8.05;2.45;;;;;;;;;;5094754;28;20486;-79
2022/01/31 04:52:48;;;;;;;11.00;3.00;;;;;;;;;;5093978;28;20062;-83
2022/01/31 04:55:14;;;;;;;19.10;4.22;;;;;;;;;;5099642;28;20023;-82
2022/01/31 04:57:40;;;;;;;17.67;3.75;;;;;;;;;;5103885;28;20034;-80
2022/01/31 05:00:08;;;;;;;6.90;2.35;;;;;;;;;;5100285;28;20031;-82
2022/01/31 05:02:35;;;;;;;16.48;3.63;;;;;;;;;;5118631;28;20040;-80
2022/01/31 05:05:01;;;;;;;13.43;2.92;;;;;;;;;;5117344;28;20073;-79
2022/01/31 05:07:27;;;;;;;15.73;3.10;;;;;;;;;;5118292;28;20058;-80
2022/01/31 05:09:53;;;;;;;14.73;3.55;;;;;;;;;;5119280;28;20040;-79
2022/01/31 05:12:19;;;;;;;12.98;2.88;;;;;;;;;;5102819;28;20024;-80
2022/01/31 05:14:45;;;;;;;12.35;4.43;;;;;;;;;;5103346;28;20027;-79
2022/01/31 05:17:11;;;;;;;13.25;3.20;;;;;;;;;;5098601;28;20032;-82
2022/01/31 05:19:38;;;;;;;12.50;2.72;;;;;;;;;;5099999;28;20027;-80
2022/01/31 05:22:04;;;;;;;13.60;3.40;;;;;;;;;;5123058;28;20092;-82
2022/01/31 05:24:30;;;;;;;13.27;3.40;;;;;;;;;;5116145;28;20035;-82
2022/01/31 05:26:56;;;;;;;15.35;3.75;;;;;;;;;;5099655;28;20081;-84
2022/01/31 05:29:22;;;;;;;18.48;3.30;;;;;;;;;;5097911;28;20036;-80
2022/01/31 05:31:48;;;;;;;13.65;3.65;;;;;;;;;;5114815;28;20031;-81
2022/01/31 05:34:15;;;;;;;8.75;2.80;;;5.00;99.90;;;;;;5092824;28;20036;-80
2022/01/31 05:36:42;;;;;;;9.40;3.10;;;;;;;;;;5095824;28;20040;-81
2022/01/31 05:39:09;;;;;;;13.70;3.60;;;;;;;;;;5099115;28;20040;-80
2022/01/31 05:41:35;;;;;;;13.73;3.08;;;;;;;;;;5102086;28;20111;-78
2022/01/31 05:44:01;;;;;;;8.15;3.05;;;;;;;;;;5095359;28;20118;-88
2022/01/31 05:46:27;;;;;;;10.80;3.20;;;;;;;;;;5108601;28;20036;-80
2022/01/31 05:48:53;;;;;;;11.15;3.22;;;;;;;;;;5096181;28;20032;-80
2022/01/31 05:51:21;;;;;;;10.00;3.20;;;;;;;;;;5096266;28;20100;-86
2022/01/31 05:53:48;;;;;;;8.38;3.53;;;;;;;;;;5119530;28;20011;-81
2022/01/31 05:56:16;;;;;;;10.90;4.25;;;5.10;99.90;;;;;;5092033;28;20032;-80
2022/01/31 05:58:42;;;;;;;6.50;2.42;;;;;;;;;;5099845;28;20038;-79
2022/01/31 06:01:08;;;;;;;9.40;3.38;;;;;;;;;;5093931;28;20040;-81
2022/01/31 06:03:35;;;;;;;12.98;3.55;;;;;;;;;;5112723;28;20028;-82
2022/01/31 06:06:01;;;;;;;8.52;3.97;;;;;;;;;;5117527;28;20036;-81
2022/01/31 06:08:27;;;;;;;11.50;2.95;;;;;;;;;;5098579;28;20039;-81
2022/01/31 06:10:56;;;;;;;7.70;3.10;;;;;;;;;;5119992;28;20027;-80
2022/01/31 06:13:29;;;;;;;5.22;2.72;;;;;;;;;;5113559;28;20036;-79
2022/01/31 06:15:58;;;;;;;7.75;2.92;;;;;;;;;;5094848;28;20021;-81
2022/01/31 06:18:24;;;;;;;7.18;3.10;;;;;;;;;;5120560;28;20011;-81
2022/01/31 06:20:50;;;;;;;7.00;2.65;;;;;;;;;;5096531;28;20487;-81
2022/01/31 06:23:20;;;;;;;6.20;2.28;;;;;;;;;;5116328;28;20031;-81
2022/01/31 06:25:49;;;;;;;5.85;2.00;;;;;;;;;;5080992;28;20105;-81
2022/01/31 06:28:15;;;;;;;5.82;2.63;;;;;;;;;;5097810;28;20031;-84
2022/01/31 06:30:41;;;;;;;8.25;2.78;;;;;;;;;;5096310;28;20028;-83
2022/01/31 06:33:07;;;;;;;4.40;1.80;;;;;;;;;;5098449;28;20038;-83
2022/01/31 06:35:33;;;;;;;5.43;2.30;;;;;;;;;;5099675;28;20087;-85
2022/01/31 06:37:59;;;;;;;7.72;2.55;;;;;;;;;;5102462;28;20692;-80
2022/01/31 06:40:25;;;;;;;6.60;2.28;;;;;;;;;;5102805;28;20023;-80
2022/01/31 06:42:51;;;;;;;5.28;2.20;;;;;;;;;;5121545;28;20031;-87
2022/01/31 06:45:17;;;;;;;4.20;1.92;;;;;;;;;;5100825;28;20040;-82
2022/01/31 06:47:43;;;;;;;3.80;1.80;;;;;;;;;;5123110;28;20023;-88
2022/01/31 06:50:09;;;;;;;3.55;1.90;;;;;;;;;;5093663;28;20415;-85
2022/01/31 06:52:37;;;;;;;2.40;1.20;;;;;;;;;;5083600;28;20043;-81
2022/01/31 06:55:05;;;;;;;6.68;1.80;;;;;;;;;;5097642;28;20023;-85
2022/01/31 06:57:34;;;;;;;4.93;1.85;;;;;;;;;;5086578;28;20312;-84
2022/01/31 07:00:01;;;;;;;4.63;2.10;;;;;;;;;;5099540;28;20028;-83
2022/01/31 07:02:28;;;;;;;6.05;2.38;;;;;;;;;;5080821;28;20016;-82
2022/01/31 07:04:54;;;;;;;4.28;1.75;;;;;;;;;;5082053;28;20029;-82
2022/01/31 07:07:20;;;;;;;5.07;2.83;;;;;;;;;;5082499;28;20084;-83
2022/01/31 07:09:46;;;;;;;3.50;1.70;;;;;;;;;;5087063;28;20024;-83
2022/01/31 07:12:15;;;;;;;7.30;1.60;;;;;;;;;;5108370;28;20043;-86
2022/01/31 07:14:41;;;;;;;5.97;1.50;;;;;;;;;;5095333;28;20035;-88
2022/01/31 07:17:07;;;;;;;3.35;1.60;;;;;;;;;;5112123;28;20039;-87
2022/01/31 07:19:37;;;;;;;7.72;1.58;;;;;;;;;;5102882;28;20039;-85
2022/01/31 07:22:06;;;;;;;4.05;1.88;;;;;;;;;;5094310;28;20020;-84
2022/01/31 07:27:02;;;;;;;4.00;1.63;;;;;;;;;;5111086;28;20036;-85
2022/01/31 07:29:31;;;;;;;3.15;1.70;;;;;;;;;;5090355;28;20023;-86
2022/01/31 07:31:58;;;;;;;6.75;2.25;;;;;;;;;;5087820;28;20024;-84
2022/01/31 07:34:24;;;;;;;6.35;1.88;;;;;;;;;;5089928;28;20024;-82
2022/01/31 07:36:51;;;;;;;3.97;1.60;;;;;;;;;;5088784;28;20031;-83
2022/01/31 07:39:18;;;;;;;3.42;1.50;;;;;;;;;;5089634;28;20046;-85
2022/01/31 07:41:44;;;;;;;3.25;1.80;;;;;;;;;;5107369;28;20024;-84
2022/01/31 07:44:11;;;;;;;7.20;2.20;;;;;;;;;;5089350;28;20040;-83
2022/01/31 07:46:38;;;;;;;7.75;2.03;;;;;;;;;;5108180;28;20008;-84
2022/01/31 07:49:04;;;;;;;3.88;1.98;;;;;;;;;;5106208;28;20036;-85
2022/01/31 07:51:31;;;;;;;5.78;1.80;;;;;;;;;;5090626;28;20051;-86
2022/01/31 07:53:57;;;;;;;4.88;2.00;;;;;;;;;;5086380;28;20017;-84
2022/01/31 07:56:23;;;;;;;5.80;1.90;;;;;;;;;;5095061;28;20049;-82
2022/01/31 07:58:49;;;;;;;5.93;2.33;;;;;;;;;;5109040;28;20039;-84
2022/01/31 08:01:15;;;;;;;4.93;1.90;;;;;;;;;;5086875;28;20042;-84
2022/01/31 08:03:42;;;;;;;5.63;1.90;;;;;;;;;;5106464;28;20059;-85
2022/01/31 08:06:08;;;;;;;4.13;1.73;;;;;;;;;;5089338;28;20032;-82
2022/01/31 08:08:35;;;;;;;5.43;2.28;;;;;;;;;;5090235;28;20032;-86
2022/01/31 08:11:02;;;;;;;4.70;2.00;;;;;;;;;;5101073;28;20024;-81
2022/01/31 08:13:29;;;;;;;7.35;2.50;;;;;;;;;;5108066;28;20119;-83
2022/01/31 08:18:34;;;;;;;12.10;2.70;;;;;;;;;;5108856;28;20024;-84
2022/01/31 08:21:03;;;;;;;5.38;2.15;;;;;;;;;;5090706;28;20024;-86
2022/01/31 08:23:29;;;;;;;5.50;2.08;;;;;;;;;;5108764;28;20020;-84
2022/01/31 08:25:57;;;;;;;7.47;2.40;;;;;;;;;;5107513;28;20039;-82
2022/01/31 08:28:32;;;;;;;4.35;1.83;;;;;;;;;;5093154;28;20084;-85
2022/01/31 08:31:06;;;;;;;3.40;2.00;;;;;;;;;;5106647;28;20062;-86
2022/01/31 08:33:36;;;;;;;7.35;2.13;;;;;;;;;;5103428;28;20028;-83
2022/01/31 08:36:03;;;;;;;8.35;2.00;;;;;;;;;;5090432;28;20028;-86
2022/01/31 08:38:32;;;;;;;7.70;2.25;;;;;;;;;;5090863;28;20056;-87
2022/01/31 08:40:59;;;;;;;7.50;2.10;;;;;;;;;;5085331;28;20028;-86
2022/01/31 08:43:25;;;;;;;9.65;2.28;;;;;;;;;;5101584;28;20107;-87
2022/01/31 08:45:55;;;;;;;7.93;2.05;;;;;;;;;;5085727;28;20077;-85
2022/01/31 08:48:21;;;;;;;10.10;2.35;;;;;;;;;;5087586;28;20110;-84
2022/01/31 08:50:47;;;;;;;6.65;2.00;;;;;;;;;;5112181;28;20044;-87
2022/01/31 08:53:13;;;;;;;5.70;1.70;;;;;;;;;;5103664;28;20024;-82
2022/01/31 08:55:40;;;;;;;8.13;2.10;;;;;;;;;;5091465;28;20035;-86
2022/01/31 08:58:07;;;;;;;7.22;1.90;;;;;;;;;;5101450;28;20096;-90
2022/01/31 09:00:34;;;;;;;6.15;2.20;;;;;;;;;;5108958;28;20111;-88
2022/01/31 09:03:19;;;;;;;5.75;2.10;;;;;;;;;;5111341;28;20028;-89
2022/01/31 09:05:45;;;;;;;6.22;1.88;;;;;;;;;;5110138;28;20021;-84
2022/01/31 09:08:14;;;;;;;6.43;1.60;;;;;;;;;;5106448;28;20021;-86
2022/01/31 09:10:43;;;;;;;5.90;1.70;;;;;;;;;;5112529;23;20063;-81
2022/01/31 09:13:17;;;;;;;5.03;1.50;;;;;;;;;;5005345;28;20048;-81
2022/01/31 09:15:45;;;;;;;5.20;1.42;;;;;;;;;;4983660;28;20053;-81
2022/01/31 09:18:18;;;;;;;5.93;1.60;;;;;;;;;;4986276;28;20055;-81
2022/01/31 09:20:45;;;;;;;6.10;1.40;;;;;;;;;;4983972;28;20030;-81
2022/01/31 09:23:13;;;;;;;5.13;1.42;;;;;;;;;;4997537;28;20058;-81
2022/01/31 09:25:44;;;;;;;16.20;2.25;;;;;;;;;;4981090;28;20050;-81
2022/01/31 09:28:11;;;;;;;4.03;1.27;;;;;;;;;;4980151;28;20033;-82
2022/01/31 09:30:39;;;;;;;5.80;1.63;;;;;;;;;;4978829;28;20481;-82
2022/01/31 09:33:07;;;;;;;6.10;1.60;;;;;;;;;;5002250;28;20034;-81
2022/01/31 09:35:37;;;;;;;6.00;1.38;;;;;;;;;;4973318;28;20289;-82
2022/01/31 09:38:04;;;;;;;3.42;1.48;;;;;;;;;;4992959;28;20497;-81
2022/01/31 09:40:31;;;;;;;5.75;1.60;;;;;;;;;;4974741;28;20113;-80
2022/01/31 09:43:08;;;;;;;6.47;1.73;;;;;;;;;;4975811;28;20046;-78
2022/01/31 09:45:51;;;;;;;6.95;1.60;;;;;;;;;;4993430;28;20417;-81
2022/01/31 09:48:38;;;;;;;4.78;1.20;;;;;;;;;;4977573;28;20062;-81
2022/01/31 09:51:07;;;;;;;4.68;1.40;;;;;;;;;;4977054;28;20095;-81
2022/01/31 09:53:36;;;;;;;5.07;1.70;;;;;;;;;;4981804;28;20077;-80
2022/01/31 09:56:09;;;;;;;5.30;1.85;;;;;;;;;;4974718;28;20027;-82
2022/01/31 09:58:35;;;;;;;5.03;1.60;;;;;;;;;;4989215;28;20090;-81
2022/01/31 10:01:11;;;;;;;7.68;2.03;;;;;;;;;;4977059;28;20026;-81
2022/01/31 10:03:46;;;;;;;5.82;1.50;;;;;;;;;;4973633;28;20027;-81
2022/01/31 10:06:28;;;;;;;7.20;2.28;;;;;;;;;;4978646;28;20114;-82
2022/01/31 10:09:06;;;;;;;7.50;1.73;;;;;;;;;;4982573;28;20055;-80
2022/01/31 10:11:45;;;;;;;9.85;2.38;;;;;;;;;;4984392;28;20031;-82
2022/01/31 10:17:22;;;;;;;5.07;1.40;;;;;;;;;;4981103;28;20100;-80
2022/01/31 10:19:49;;;;;;;4.72;1.35;;;;;;;;;;4983180;28;20077;-82
2022/01/31 10:22:17;;;;;;;7.30;1.77;;;;;;;;;;4980438;28;20101;-82
2022/01/31 10:24:44;;;;;;;6.38;1.70;;;;;;;;;;4996704;28;20030;-82
2022/01/31 10:27:14;;;;;;;6.07;1.60;;;;;;;;;;4987873;28;20102;-81
2022/01/31 10:29:43;;;;;;;;;;;7.10;99.90;;;;;;4976396;28;20027;-81
2022/01/31 10:32:11;;;;;;;4.88;1.55;;;;;;;;;;4978460;28;19918;-80
2022/01/31 10:34:46;;;;;;;6.90;2.13;;;;;;;;;;4995873;28;20019;-81
2022/01/31 10:37:19;;;;;;;5.40;1.63;;;;;;;;;;4980612;28;20030;-81
2022/01/31 10:53:48;;;;;;;9.85;1.70;;;;;;;;;;4989215;28;20035;-80
2022/01/31 10:56:15;;;;;;;7.68;2.08;;;;;;;;;;4998915;28;20424;-81
2022/01/31 10:59:02;;;;;;;6.78;2.40;;;7.60;99.90;;;;;;4999188;28;20023;-81
2022/01/31 11:01:30;;;;;;;4.10;1.48;;;;;;;;;;4986409;28;20034;-81
2022/01/31 11:03:57;;;;;;;7.32;1.90;;;;;;;;;;4985681;28;20030;-81
2022/01/31 11:06:25;;;;;;;6.25;1.92;;;;;;;;;;4999515;28;20031;-80
2022/01/31 11:08:52;;;;;;;9.07;1.80;;;;;;;;;;4979142;28;20485;-81
2022/01/31 13:20:41;;;;;;;4.18;1.77;;;;;;;;;;5115242;23;20038;-82
2022/01/31 13:23:15;;;;;;;5.38;1.30;;;;;;;;;;4983576;28;20061;-80
2022/01/31 13:25:41;;;;;;;7.53;1.30;;;;;;;;;;4965509;28;20027;-82
2022/01/31 13:28:10;;;;;;;6.13;1.20;;;;;;;;;;4980431;28;20023;-82
2022/01/31 13:30:39;;;;;;;7.25;1.50;;;;;;;;;;5001463;28;20031;-81
2022/01/31 13:33:12;;;;;;;4.90;1.67;;;;;;;;;;4967677;28;20090;-82
2022/01/31 13:35:42;;;;;;;6.40;2.00;;;;;;;;;;4979898;28;20030;-81
2022/01/31 13:38:10;;;;;;;6.78;1.35;;;;;;;;;;4963205;28;20023;-82
2022/01/31 13:40:44;;;;;;;8.65;1.77;;;;;;;;;;4978800;28;20050;-82
2022/01/31 13:43:21;;;;;;;7.10;2.08;;;;;;;;;;4962644;28;20041;-82
2022/01/31 13:46:40;;;;;;;5.57;1.85;;;;;;;;;;4964709;28;20445;-81
2022/01/31 13:49:11;;;;;;;9.40;1.52;;;;;;;;;;4972059;28;20026;-83
2022/01/31 13:51:44;;;;;;;8.93;1.90;;;;;;;;;;4979882;28;20023;-82
2022/01/31 13:54:14;;;;;;;9.10;1.73;;;;;;;;;;4975501;28;20437;-82
2022/01/31 13:56:51;;;;;;;7.70;1.60;;;;;;;;;;4963295;28;20027;-82
2022/01/31 13:59:17;;;;;;;11.07;1.83;;;;;;;;;;4970242;28;20023;-82
2022/01/31 14:02:04;;;;;;;8.07;2.17;;;;;;;;;;4970372;28;20029;-81
2022/01/31 14:04:37;;;;;;;4.07;1.00;;;;;;;;;;4951433;28;20074;-82
2022/01/31 14:07:23;;;;;;;12.52;1.67;;;;;;;;;;4979380;28;20054;-82
2022/01/31 14:09:53;;;;;;;13.40;2.58;;;;;;;;;;4994179;28;20035;-82
2022/01/31 14:12:37;;;;;;;9.50;1.55;;;;;;;;;;4970486;28;20059;-83
2022/01/31 14:15:06;;;;;;;8.30;2.08;;;;;;;;;;4973475;28;20032;-82
2022/01/31 14:17:33;;;;;;;7.10;1.60;;;;;;;;;;4960290;28;20024;-83
2022/01/31 14:20:01;;;;;;;6.18;1.42;;;;;;;;;;4987016;28;20047;-82
2022/01/31 14:22:34;;;;;;;12.02;2.33;;;;;;;;;;4985479;28;20027;-82
2022/01/31 14:25:16;;;;;;;7.28;1.77;;;;;;;;;;4966968;28;20066;-83
2022/01/31 14:28:00;;;;;;;12.38;1.48;;;;;;;;;;4979476;28;20031;-80
2022/01/31 14:30:29;;;;;;;7.45;1.50;;;;;;;;;;4978015;28;20038;-80
2022/01/31 14:32:57;;;;;;;10.35;1.58;;;;;;;;;;4962148;28;20018;-81
2022/01/31 14:35:24;;;;;;;8.00;1.50;;;;;;;;;;4977593;28;20019;-80
2022/01/31 14:38:01;;;;;;;8.60;1.90;;;;;;;;;;4996277;28;20027;-81
2022/01/31 14:49:09;;;;;;;6.65;1.35;;;;;;;;;;4987901;28;20125;-81
2022/01/31 14:51:40;;;;;;;5.97;1.40;;;;;;;;;;4962476;28;20038;-81
2022/01/31 14:54:10;;;;;;;6.90;1.33;;;;;;;;;;4983405;28;20026;-81
2022/01/31 14:56:37;;;;;;;3.40;1.13;;;;;;;;;;4972895;28;20027;-80
2022/01/31 14:59:04;;;;;;;9.15;1.80;;;;;;;;;;4961747;28;20056;-80
2022/01/31 15:01:30;;;;;;;9.73;2.25;;;;;;;;;;4978969;28;20027;-81
2022/01/31 15:03:57;;;;;;;7.75;1.52;;;;;;;;;;4981916;28;20035;-81
2022/01/31 15:06:25;;;;;;;7.43;1.73;;;;;;;;;;4981226;28;20397;-81
2022/01/31 15:08:57;;;;;;;8.25;1.50;;;;;;;;;;4979118;28;20027;-80
2022/01/31 15:11:31;;;;;;;5.70;1.52;;;;;;;;;;4977036;28;20480;-80
2022/01/31 15:13:58;;;;;;;7.90;1.23;;;;;;;;;;4989771;28;20036;-81
2022/01/31 15:16:28;;;;;;;6.97;1.40;;;;;;;;;;4980488;28;20120;-82
2022/01/31 15:18:55;;;;;;;10.75;1.42;;;;;;;;;;4953426;29;20038;-84
2022/01/31 15:21:26;;;;;;;12.05;1.52;;;;;;;;;;4961069;29;20110;-83
2022/01/31 15:23:56;;;;;;;4.60;1.30;;;;;;;;;;4960695;29;20086;-81
2022/01/31 15:26:25;;;;;;;5.90;1.52;;;;;;;;;;4978042;28;20074;-80
2022/01/31 15:28:55;;;;;;;6.45;1.63;;;;;;;;;;4994675;28;20497;-83
2022/01/31 15:31:24;;;;;;;5.18;1.45;;;;;;;;;;4978624;28;20023;-81
2022/01/31 15:33:54;;;;;;;6.97;1.58;;;;;;;;;;5014845;28;20476;-83
2022/01/31 15:36:26;;;;;;;8.13;1.48;;;;;;;;;;4988203;28;20027;-81
2022/01/31 15:39:00;;;;;;;3.70;1.27;;;;;;;;;;4964648;28;20117;-81
2022/01/31 15:41:30;;;;;;;4.85;1.65;;;;;;;;;;4964362;28;20057;-81
2022/01/31 15:43:58;;;;;;;5.10;1.08;;;;;;;;;;4966002;28;20023;-82
2022/01/31 15:49:29;;;;;;;4.70;1.40;;;;;;;;;;4947870;28;20047;-80
2022/01/31 15:52:10;;;;;;;8.57;1.70;;;;;;;;;;4961389;28;20115;-80
2022/01/31 15:54:42;;;;;;;5.07;1.27;;;;;;;;;;4982205;28;20027;-80
2022/01/31 15:57:10;;;;;;;9.20;1.58;;;;;;;;;;4965521;28;20110;-80
2022/01/31 15:59:39;;;;;;;7.35;1.60;;;;;;;;;;5003052;28;20077;-79
2022/01/31 16:02:09;;;;;;;4.68;1.55;;;;;;;;;;4980425;28;20035;-79
2022/01/31 16:04:35;;;;;;;5.15;1.55;;;;;;;;;;4996423;28;20027;-79
2022/01/31 16:07:01;;;;;;;2.60;0.98;;;;;;;;;;4972985;28;20058;-80
2022/01/31 16:09:27;;;;;;;9.65;1.75;;;;;;;;;;4991754;28;20562;-79
2022/01/31 16:11:54;;;;;;;9.70;2.17;;;;;;;;;;4971381;28;20042;-81
2022/01/31 16:14:21;;;;;;;6.05;1.42;;;;;;;;;;4987261;28;20047;-81
2022/01/31 16:16:47;;;;;;;11.35;1.92;;;;;;;;;;4990354;28;20031;-80
2022/01/31 16:19:13;;;;;;;10.05;1.85;;;;;;;;;;4997524;28;20053;-81
2022/01/31 16:21:39;;;;;;;10.05;2.28;;;;;;;;;;4989042;28;20054;-81
2022/01/31 16:24:05;;;;;;;6.82;1.20;;;;;;;;;;4996056;28;20054;-80
2022/01/31 16:26:32;;;;;;;8.07;1.27;;;;;;;;;;4983792;28;20114;-80
2022/01/31 16:28:58;;;;;;;5.32;1.75;;;;;;;;;;4993682;28;20119;-81
2022/01/31 16:31:24;;;;;;;8.25;1.50;;;;;;;;;;4995751;28;20122;-80
2022/01/31 16:33:51;;;;;;;8.73;2.42;;;;;;;;;;4991045;28;20038;-80
2022/01/31 16:36:20;;;;;;;4.97;1.50;;;;;;;;;;4995773;28;20034;-80
2022/01/31 16:38:47;;;;;;;6.53;1.60;;;;;;;;;;4986437;28;20086;-80
2022/01/31 16:41:13;;;;;;;7.75;1.65;;;;;;;;;;4996060;28;20094;-79
2022/01/31 16:43:39;;;;;;;8.23;1.95;;;;;;;;;;4988042;28;20027;-80
2022/01/31 16:46:05;;;;;;;6.78;1.63;;;;;;;;;;4994290;28;20034;-81
2022/01/31 16:48:31;;;;;;;7.43;1.45;;;;;;;;;;4991414;28;20023;-81
2022/01/31 16:50:57;;;;;;;5.25;1.40;;;;;;;;;;4978136;28;20038;-80
2022/01/31 16:53:23;;;;;;;9.80;2.47;;;;;;;;;;4970344;28;20035;-81
2022/01/31 16:55:50;;;;;;;5.53;1.27;;;;;;;;;;4975670;28;20086;-82
2022/01/31 16:58:16;;;;;;;7.05;1.58;;;;;;;;;;4982902;28;20041;-82
2022/01/31 17:00:43;;;;;;;7.25;1.63;;;;;;;;;;4980245;28;20425;-81
2022/01/31 17:03:09;;;;;;;6.85;1.92;;;;;;;;;;4974776;28;20039;-81
2022/01/31 17:05:38;;;;;;;4.63;1.17;;;;;;;;;;4974258;28;20027;-81
2022/01/31 17:08:05;;;;;;;5.18;1.23;;;6.40;99.90;;;;;;4988298;28;20042;-80
2022/01/31 17:10:32;;;;;;;8.32;3.10;;;;;;;;;;4967556;28;20026;-81
2022/01/31 17:12:58;;;;;;;4.15;1.27;;;6.20;99.90;;;;;;4979316;28;20023;-81
2022/01/31 17:15:24;;;;;;;4.22;1.30;;;;;;;;;;4981567;28;20027;-80
2022/01/31 17:17:51;;;;;;;4.03;1.50;;;;;;;;;;4966422;28;20543;-81
2022/01/31 17:20:18;;;;;;;5.30;1.50;;;6.20;99.90;;;;;;4980744;28;20267;-81
2022/01/31 17:22:45;;;;;;;3.63;1.27;;;6.20;99.90;;;;;;4968099;28;20471;-82
2022/01/31 17:25:11;;;;;;;4.13;1.25;;;;;;;;;;4963212;28;20035;-79